createdAt,value
2023-03-27T00:05:30.724Z,15.69
2023-03-27T00:11:32.506Z,15.47
2023-03-27T00:17:34.390Z,15.75
2023-03-27T00:23:36.030Z,15.63
2023-03-27T00:29:39.047Z,15.56
2023-03-27T00:35:47.884Z,15.76
2023-03-27T00:41:54.803Z,15.84
2023-03-27T00:48:02.584Z,15.73
2023-03-27T00:54:05.520Z,15.86
2023-03-27T01:00:13.085Z,15.73
2023-03-27T01:06:16.192Z,15.40
2023-03-27T01:12:24.712Z,15.20
2023-03-27T01:18:33.639Z,15.25
2023-03-27T01:24:41.566Z,15.12
2023-03-27T01:30:55.722Z,14.95
2023-03-27T01:37:05.805Z,14.97
2023-03-27T01:43:12.623Z,14.86
2023-03-27T01:49:19.577Z,14.68
2023-03-27T01:55:24.804Z,14.44
2023-03-27T02:01:37.167Z,14.33
2023-03-27T02:07:42.218Z,14.66
2023-03-27T02:13:53.915Z,14.49
2023-03-27T02:20:04.006Z,14.52
2023-03-27T02:26:05.956Z,14.46
2023-03-27T02:32:15.306Z,14.00
2023-03-27T02:38:28.525Z,14.30
2023-03-27T02:44:33.823Z,14.02
2023-03-27T02:50:50.462Z,14.04
2023-03-27T02:56:55.326Z,14.17
2023-03-27T03:03:16.937Z,14.33
2023-03-27T03:09:24.826Z,14.43
2023-03-27T03:15:26.758Z,14.57
2023-03-27T03:21:28.248Z,15.01
2023-03-27T03:27:30.494Z,15.30
2023-03-27T03:33:37.542Z,15.43
2023-03-27T03:39:39.172Z,15.30
2023-03-27T03:45:41.432Z,15.09
2023-03-27T03:51:42.982Z,14.89
2023-03-27T03:57:46.712Z,15.16
2023-03-27T04:03:53.903Z,15.21
2023-03-27T04:09:58.668Z,15.23
2023-03-27T04:16:03.102Z,15.09
2023-03-27T04:22:07.670Z,14.97
2023-03-27T04:28:17.697Z,14.93
2023-03-27T04:34:23.575Z,14.74
2023-03-27T04:40:48.652Z,14.80
2023-03-27T04:46:51.430Z,14.45
2023-03-27T04:52:59.255Z,14.27
2023-03-27T04:59:03.998Z,14.28
2023-03-27T05:05:05.918Z,14.51
2023-03-27T05:11:12.098Z,14.48
2023-03-27T05:17:19.541Z,14.04
2023-03-27T05:23:21.541Z,14.07
2023-03-27T05:29:23.672Z,13.88
2023-03-27T05:35:32.187Z,14.27
2023-03-27T05:41:36.404Z,14.56
2023-03-27T05:47:53.498Z,14.74
2023-03-27T05:53:55.550Z,14.50
2023-03-27T06:00:15.606Z,14.23
2023-03-27T06:06:22.166Z,14.12
2023-03-27T06:12:29.447Z,14.40
2023-03-27T06:18:39.952Z,14.78
2023-03-27T06:24:42.029Z,14.49
2023-03-27T06:30:45.466Z,14.43
2023-03-27T06:37:06.368Z,14.66
2023-03-27T06:43:18.230Z,14.67
2023-03-27T06:49:32.223Z,14.23
2023-03-27T06:55:39.185Z,14.05
2023-03-27T07:01:43.105Z,14.36
2023-03-27T07:08:21.184Z,14.35
2023-03-27T07:14:25.834Z,14.37
2023-03-27T07:20:29.280Z,14.65
2023-03-27T07:26:33.761Z,14.81
2023-03-27T07:32:47.624Z,15.11
2023-03-27T07:38:49.380Z,15.17
2023-03-27T07:44:57.498Z,14.92
2023-03-27T07:51:10.798Z,14.71
2023-03-27T07:57:15.736Z,14.33
2023-03-27T08:03:27.643Z,14.53
2023-03-27T08:09:29.929Z,13.87
2023-03-27T08:15:33.331Z,14.56
2023-03-27T08:21:36.248Z,14.45
2023-03-27T08:27:37.863Z,14.36
2023-03-27T08:33:41.228Z,13.96
2023-03-27T08:39:46.656Z,13.76
2023-03-27T08:46:01.552Z,13.67
2023-03-27T08:52:09.857Z,13.45
2023-03-27T08:58:20.425Z,13.47
2023-03-27T09:05:00.155Z,13.91
2023-03-27T09:11:05.773Z,13.59
2023-03-27T09:17:46.416Z,13.43
2023-03-27T09:23:53.469Z,13.31
2023-03-27T09:30:33.914Z,13.27
2023-03-27T09:36:43.837Z,12.85
2023-03-27T09:42:47.972Z,12.98
2023-03-27T09:49:00.841Z,15.67
2023-03-27T09:55:04.181Z,26.70
2023-03-27T10:01:27.042Z,22.80
2023-03-27T10:07:30.134Z,23.41
2023-03-27T10:13:46.041Z,22.98
2023-03-27T10:20:04.797Z,21.79
2023-03-27T10:26:13.164Z,20.45
2023-03-27T10:32:42.454Z,18.46
2023-03-27T10:39:12.239Z,18.30
2023-03-27T10:45:30.725Z,18.95
2023-03-27T10:51:46.429Z,18.24
2023-03-27T10:57:57.432Z,18.14
2023-03-27T11:04:06.591Z,18.54
2023-03-27T11:10:19.587Z,16.85
2023-03-27T11:16:38.587Z,15.99
2023-03-27T11:22:46.571Z,15.70
2023-03-27T11:29:16.244Z,17.16
2023-03-27T11:35:24.361Z,14.74
2023-03-27T11:41:38.864Z,16.30
2023-03-27T11:47:49.561Z,16.21
2023-03-27T11:54:04.721Z,15.58
2023-03-27T12:00:31.285Z,16.29
2023-03-27T12:06:35.488Z,15.95
2023-03-27T12:12:49.456Z,16.31
2023-03-27T12:19:05.856Z,17.39
2023-03-27T12:25:16.283Z,19.76
2023-03-27T12:31:49.073Z,17.45
2023-03-27T12:37:58.482Z,15.97
2023-03-27T12:44:03.003Z,16.79
2023-03-27T12:50:33.421Z,17.24
2023-03-27T12:56:36.544Z,18.17
2023-03-27T13:03:06.261Z,15.27
2023-03-27T13:09:34.737Z,15.92
2023-03-27T13:15:46.384Z,15.82
2023-03-27T13:22:10.458Z,15.39
2023-03-27T13:28:18.149Z,14.02
2023-03-27T13:34:38.624Z,16.06
2023-03-27T13:40:45.313Z,16.68
2023-03-27T13:47:24.681Z,16.05
2023-03-27T13:53:53.678Z,14.71
2023-03-27T14:00:32.509Z,15.25
2023-03-27T14:07:04.639Z,14.50
2023-03-27T14:13:26.114Z,14.40
2023-03-27T14:19:58.957Z,13.26
2023-03-27T14:26:19.442Z,12.78
2023-03-27T14:32:22.015Z,11.78
2023-03-27T14:38:35.278Z,11.67
2023-03-27T14:44:37.255Z,12.12
2023-03-27T14:50:50.988Z,12.99
2023-03-27T14:56:59.473Z,13.83
2023-03-27T15:03:15.660Z,11.63
2023-03-27T15:09:18.616Z,12.02
2023-03-27T15:15:42.293Z,13.87
2023-03-27T15:21:50.225Z,15.17
2023-03-27T15:27:55.458Z,13.81
2023-03-27T15:34:15.316Z,14.59
2023-03-27T15:40:32.337Z,13.86
2023-03-27T15:46:50.681Z,12.52
2023-03-27T15:52:54.325Z,13.95
2023-03-27T15:59:03.084Z,14.89
2023-03-27T16:05:05.286Z,13.90
2023-03-27T16:11:06.767Z,15.51
2023-03-27T16:17:19.883Z,14.13
2023-03-27T16:23:21.502Z,12.90
2023-03-27T16:29:23.269Z,13.45
2023-03-27T16:35:26.118Z,13.24
2023-03-27T16:41:28.001Z,12.67
2023-03-27T16:47:30.723Z,11.36
2023-03-27T16:53:32.454Z,12.17
2023-03-27T16:59:36.767Z,12.73
2023-03-27T17:05:38.491Z,11.73
2023-03-27T17:11:40.516Z,10.69
2023-03-27T17:17:42.447Z,11.86
2023-03-27T17:23:47.534Z,13.34
2023-03-27T17:29:49.053Z,10.56
2023-03-27T17:35:50.740Z,11.73
2023-03-27T17:41:53.053Z,11.68
2023-03-27T17:47:55.137Z,11.33
2023-03-27T17:53:57.096Z,13.69
2023-03-27T17:59:58.515Z,11.71
2023-03-27T18:06:02.675Z,11.76
2023-03-27T18:12:04.609Z,11.16
2023-03-27T18:18:07.420Z,11.96
2023-03-27T18:24:09.441Z,11.45
2023-03-27T18:30:14.195Z,12.66
2023-03-27T18:36:16.206Z,11.75
2023-03-27T18:42:18.210Z,10.44
2023-03-27T18:48:19.968Z,10.85
2023-03-27T18:54:22.330Z,9.97
2023-03-27T19:00:24.259Z,9.79
2023-03-27T19:06:26.027Z,10.03
2023-03-27T19:12:27.524Z,10.14
2023-03-27T19:18:58.256Z,9.77
2023-03-27T19:25:26.942Z,10.55
2023-03-27T19:31:29.089Z,10.68
2023-03-27T19:37:33.723Z,12.85
2023-03-27T19:43:36.156Z,11.38
2023-03-27T19:49:37.789Z,10.15
2023-03-27T19:56:12.011Z,10.95
2023-03-27T20:02:14.402Z,10.48
2023-03-27T20:08:20.034Z,9.85
2023-03-27T20:14:22.298Z,9.73
2023-03-27T20:20:24.263Z,10.11
2023-03-27T20:26:28.568Z,11.31
2023-03-27T20:32:56.791Z,10.24
2023-03-27T20:39:03.987Z,9.58
2023-03-27T20:45:06.683Z,9.78
2023-03-27T20:51:16.929Z,9.70
2023-03-27T20:57:26.963Z,9.57
2023-03-27T21:03:31.443Z,10.01
2023-03-27T21:09:37.859Z,9.35
2023-03-27T21:15:45.156Z,9.30
2023-03-27T21:21:52.671Z,9.32
2023-03-27T21:28:15.168Z,9.43
2023-03-27T21:35:15.511Z,10.05
2023-03-27T21:41:23.765Z,9.52
2023-03-27T21:47:46.570Z,9.28
2023-03-27T21:54:01.335Z,9.17
2023-03-27T22:00:09.375Z,9.69
2023-03-27T22:06:20.414Z,9.35
2023-03-27T22:12:31.253Z,9.60
2023-03-27T22:18:38.847Z,9.41
2023-03-27T22:24:40.668Z,10.12
2023-03-27T22:30:50.662Z,9.56
2023-03-27T22:36:57.376Z,8.91
2023-03-27T22:43:03.508Z,9.01
2023-03-27T22:49:05.191Z,8.58
2023-03-27T22:55:11.163Z,8.78
2023-03-27T23:01:13.293Z,8.53
2023-03-27T23:07:17.758Z,8.37
2023-03-27T23:13:23.622Z,8.21
2023-03-27T23:19:25.200Z,8.08
2023-03-27T23:25:27.210Z,8.41
2023-03-27T23:31:29.818Z,8.27
2023-03-27T23:37:37.584Z,8.04
2023-03-27T23:43:46.111Z,8.33
2023-03-27T23:49:48.437Z,8.04
2023-03-27T23:55:50.924Z,7.71
